Time;durP1;ratioP1;P1;durP2;ratioP2;P2;SDS_P1;SDS_P2;PMS_P1;PMS_P2;Temp;Humidity;BMP_temperature;BMP_pressure;BME280_temperature;BME280_humidity;BME280_pressure;Samples;Min_cycle;Max_cycle;Signal;HPM_P1;HPM_P2
2020/12/30 00:01:42;;;;;;;24.07;6.75;;;;;;;11.76;69.67;101545.37;1731113;82;21636;-47
2020/12/30 00:04:10;;;;;;;18.70;5.53;;;;;;;11.76;69.38;101542.77;1732087;82;21141;-47
2020/12/30 00:06:38;;;;;;;19.40;4.80;;;;;;;11.77;69.29;101544.47;1735693;82;21614;-47
2020/12/30 00:09:07;;;;;;;18.98;6.25;;;;;;;11.77;69.42;101547.08;1728913;82;21153;-47
2020/12/30 00:11:35;;;;;;;18.17;5.78;;;;;;;11.75;69.65;101546.23;1735740;82;21121;-47
2020/12/30 00:14:03;;;;;;;20.90;5.45;;;;;;;11.75;69.90;101544.94;1731879;82;21177;-48
2020/12/30 00:16:32;;;;;;;18.40;5.92;;;;;;;11.77;69.85;101548.38;1733159;82;21529;-48
2020/12/30 00:19:01;;;;;;;23.77;6.42;;;;;;;11.78;69.95;101552.73;1733190;82;21177;-47
2020/12/30 00:21:29;;;;;;;26.35;5.80;;;;;;;11.80;69.89;101553.57;1739275;82;21609;-46
2020/12/30 00:23:57;;;;;;;24.98;6.58;;;;;;;11.81;70.01;101552.70;1728941;82;21318;-47
2020/12/30 00:26:25;;;;;;;38.15;10.65;;;;;;;11.84;69.96;101559.16;1734124;82;21712;-46
2020/12/30 00:28:53;;;;;;;43.02;10.10;;;;;;;11.85;69.88;101566.12;1732431;82;21129;-47
2020/12/30 00:31:22;;;;;;;27.77;6.70;;;;;;;11.85;69.57;101565.66;1733702;81;21289;-46
2020/12/30 00:33:50;;;;;;;26.25;6.95;;;;;;;11.85;69.32;101559.59;1731670;82;21176;-48
2020/12/30 00:36:18;;;;;;;30.95;7.95;;;;;;;11.85;69.16;101559.59;1730811;82;21129;-47
2020/12/30 00:38:46;;;;;;;23.27;5.20;;;;;;;11.85;68.90;101573.94;1736394;82;21145;-47
2020/12/30 00:41:15;;;;;;;23.02;5.95;;;;;;;11.84;68.59;101560.03;1726523;82;21152;-48
2020/12/30 00:43:43;;;;;;;22.75;5.87;;;;;;;11.82;68.46;101560.93;1733000;82;21279;-48
2020/12/30 00:46:18;;;;;;;27.67;6.37;;;;;;;11.80;68.37;101553.57;1728366;82;21291;-47
2020/12/30 00:48:47;;;;;;;20.50;6.83;;;;;;;11.77;68.33;101554.91;1731786;83;21195;-47
2020/12/30 00:51:17;;;;;;;20.65;5.17;;;;;;;11.76;68.35;101553.20;1734731;83;21541;-47
2020/12/30 00:53:47;;;;;;;26.00;6.15;;;;;;;11.75;68.36;101556.67;1735040;83;21152;-47
2020/12/30 00:56:15;;;;;;;20.02;7.25;;;;;;;11.70;68.43;101559.80;1734318;83;21302;-47
2020/12/30 00:58:43;;;;;;;18.95;5.35;;;;;;;11.68;68.57;101546.80;1734365;83;21291;-47
2020/12/30 01:01:14;;;;;;;27.22;7.65;;;;;;;11.67;68.77;101550.70;1734504;83;21270;-47
2020/12/30 01:04:01;;;;;;;28.00;7.15;;;;;;;11.67;68.69;101552.00;1734469;82;21286;-47
2020/12/30 01:06:30;;;;;;;23.42;6.33;;;;;;;11.65;68.60;101548.09;1734385;83;21302;-47
2020/12/30 01:08:58;;;;;;;22.70;7.05;;;;;;;11.64;68.57;101541.17;1734552;83;21223;-47
2020/12/30 01:11:27;;;;;;;18.50;5.08;;;;;;;11.62;68.49;101538.16;1734394;83;21196;-47
2020/12/30 01:13:57;;;;;;;14.00;4.78;;;;;;;11.61;68.53;101545.54;1734700;83;21172;-48
2020/12/30 01:16:25;;;;;;;24.43;6.35;;;;;;;11.61;68.57;101544.23;1734439;83;21199;-47
2020/12/30 01:18:54;;;;;;;26.12;6.40;;;;;;;11.61;68.44;101537.72;1732370;83;21188;-47
2020/12/30 01:21:22;;;;;;;28.85;8.45;;;;;;;11.63;68.29;101552.89;1734733;83;21580;-47
2020/12/30 01:23:50;;;;;;;22.90;6.03;;;;;;;11.62;68.18;101555.09;1734534;83;21313;-47
2020/12/30 01:26:19;;;;;;;20.52;6.47;;;;;;;11.59;68.12;101561.20;1733668;83;21310;-47
2020/12/30 01:28:47;;;;;;;18.92;6.62;;;;;;;11.60;67.93;101562.08;1734804;83;21152;-48
2020/12/30 01:31:16;;;;;;;23.40;5.87;;;;;;;11.58;67.75;101561.23;1734600;83;21201;-47
2020/12/30 01:33:44;;;;;;;23.75;5.83;;;;;;;11.57;67.68;101560.80;1734885;83;21200;-48
2020/12/30 01:36:12;;;;;;;23.20;6.08;;;;;;;11.56;67.72;101561.23;1734644;83;21172;-48
2020/12/30 01:38:41;;;;;;;15.53;5.80;;;;;;;11.55;67.76;101553.44;1734759;83;21121;-47
2020/12/30 01:41:09;;;;;;;20.23;5.30;;;;;;;11.52;67.96;101549.59;1734570;83;21294;-47
2020/12/30 01:43:38;;;;;;;21.42;6.20;;;;;;;11.53;68.11;101555.20;1728158;81;21137;-47
2020/12/30 01:46:08;;;;;;;28.02;7.53;;;;;;;11.54;68.08;101555.17;1739466;82;21189;-47
2020/12/30 01:48:36;;;;;;;32.28;9.78;;;;;;;11.54;68.02;101556.95;1735726;82;21168;-47
2020/12/30 01:51:04;;;;;;;21.10;6.25;;;;;;;11.52;67.83;101552.20;1742420;82;21632;-47
2020/12/30 01:53:33;;;;;;;27.52;5.47;;;;;;;11.51;67.97;101550.45;1736258;82;21164;-47
2020/12/30 01:56:01;;;;;;;17.92;5.28;;;;;;;11.52;68.06;101553.03;1731319;81;21152;-47
2020/12/30 01:58:30;;;;;;;16.25;5.08;;;;;;;11.52;68.10;101549.13;1734550;82;21294;-48
2020/12/30 02:00:58;;;;;;;23.80;6.20;;;;;;;11.52;68.20;101548.28;1741691;82;21274;-48
2020/12/30 02:03:26;;;;;;;16.62;5.35;;;;;;;11.53;68.18;101542.17;1710754;82;21322;-48
2020/12/30 02:05:57;;;;;;;20.57;6.08;;;;;;;11.22;69.30;101537.36;1739029;82;21180;-48
2020/12/30 02:08:25;;;;;;;27.52;7.03;;;;;;;11.15;69.57;101540.90;1740265;82;21173;-47
2020/12/30 02:10:53;;;;;;;22.25;5.85;;;;;;;11.15;69.50;101543.51;1741314;82;21708;-48
2020/12/30 02:13:23;;;;;;;25.85;6.22;;;;;;;11.15;69.52;101542.64;1733680;82;21157;-47
2020/12/30 02:15:51;;;;;;;22.05;6.30;;;;;;;11.14;69.72;101539.19;1744813;82;21529;-47
2020/12/30 02:18:20;;;;;;;25.88;6.67;;;;;;;11.14;69.96;101533.98;1732747;82;21156;-47
2020/12/30 02:20:48;;;;;;;29.95;7.75;;;;;;;11.14;70.11;101532.68;1748722;82;21180;-47
2020/12/30 02:23:16;;;;;;;23.92;7.20;;;;;;;11.16;70.19;101546.55;1739133;82;21149;-47
2020/12/30 02:25:45;;;;;;;26.50;5.97;;;;;;;11.16;70.19;101540.03;1737801;82;21557;-48
2020/12/30 02:28:13;;;;;;;23.52;5.53;;;;;;;11.16;70.27;101538.73;1741278;82;21593;-48
2020/12/30 02:30:41;;;;;;;26.25;7.80;;;;;;;11.20;70.34;101546.06;1723118;82;21152;-47
2020/12/30 02:33:09;;;;;;;34.40;7.85;;;;;;;11.20;70.41;101543.03;1732251;82;21156;-47
2020/12/30 02:35:38;;;;;;;26.70;6.50;;;;;;;11.20;70.37;101539.13;1732285;82;21548;-47
2020/12/30 02:38:06;;;;;;;18.55;5.08;;;;;;;11.21;70.33;101539.52;1742649;82;21125;-47
2020/12/30 02:40:35;;;;;;;23.05;6.10;;;;;;;11.53;69.35;101546.08;1736710;82;21224;-47
2020/12/30 02:43:04;;;;;;;17.77;5.08;;;;;;;11.54;69.32;101536.93;1737688;82;21148;-47
2020/12/30 02:45:32;;;;;;;19.55;5.72;;;;;;;11.54;69.42;101544.75;1741751;82;21128;-47
2020/12/30 02:48:00;;;;;;;23.22;5.42;;;;;;;11.58;69.36;101537.78;1734767;82;21200;-47
2020/12/30 02:50:29;;;;;;;22.70;6.17;;;;;;;11.57;69.41;101534.30;1737257;82;21168;-47
2020/12/30 02:52:57;;;;;;;20.45;5.67;;;;;;;11.56;69.59;101527.81;1740689;82;21561;-47
2020/12/30 02:55:26;;;;;;;30.20;5.80;;;;;;;11.56;69.63;101529.12;1726244;82;21161;-47
2020/12/30 02:57:54;;;;;;;23.95;6.25;;;;;;;11.59;69.66;101535.57;1740536;82;21157;-47
2020/12/30 03:00:22;;;;;;;22.85;6.53;;;;;;;11.60;69.69;101530.80;1746094;82;21315;-47
2020/12/30 03:02:51;;;;;;;16.97;5.40;;;;;;;11.60;69.69;101536.02;1741828;82;21125;-47
2020/12/30 03:05:19;;;;;;;16.30;4.65;;;;;;;11.60;69.64;101541.22;1736069;82;21298;-48
2020/12/30 03:07:49;;;;;;;18.95;4.97;;;;;;;11.59;69.61;101537.75;1738269;82;21164;-47
2020/12/30 03:10:17;;;;;;;18.45;5.87;;;;;;;11.61;69.47;101542.93;1739192;82;21295;-47
2020/12/30 03:12:46;;;;;;;19.85;5.50;;;;;;;11.62;69.40;101539.45;1737355;82;21140;-48
2020/12/30 03:15:13;;;;;;;18.55;5.37;;;;;;;11.62;69.25;101542.94;1736604;82;21141;-46
2020/12/30 03:17:41;;;;;;;22.55;6.05;;;;;;;11.61;68.93;101542.50;1742796;82;21278;-46
2020/12/30 03:20:09;;;;;;;20.35;4.72;;;;;;;11.59;68.87;101536.44;1732155;82;21176;-48
2020/12/30 03:22:38;;;;;;;20.57;5.67;;;;;;;11.61;68.73;101537.72;1728093;82;21181;-48
2020/12/30 03:25:06;;;;;;;18.20;5.33;;;;;;;11.62;68.58;101529.03;1742481;82;21149;-46
2020/12/30 03:27:35;;;;;;;20.90;5.40;;;;;;;11.61;68.53;101523.38;1736683;82;21160;-47
2020/12/30 03:30:04;;;;;;;20.12;5.30;;;;;;;11.59;68.66;101522.54;1738069;82;21168;-47
2020/12/30 03:32:33;;;;;;;27.15;6.20;;;;;;;11.57;68.67;101513.88;1741459;82;21113;-47
2020/12/30 03:35:03;;;;;;;26.33;7.97;;;;;;;11.57;68.62;101512.14;1734798;82;21169;-46
2020/12/30 03:37:32;;;;;;;18.40;5.08;;;;;;;11.58;68.55;101524.74;1742188;82;21156;-47
2020/12/30 03:40:00;;;;;;;24.43;5.95;;;;;;;11.56;68.48;101522.13;1737196;82;21540;-46
2020/12/30 03:42:28;;;;;;;18.70;4.95;;;;;;;11.57;68.65;101521.27;1738759;82;21144;-47
2020/12/30 03:44:58;;;;;;;18.57;5.12;;;;;;;11.55;68.85;101514.34;1737970;80;21144;-47
2020/12/30 03:47:30;;;;;;;23.85;5.50;;;;;;;11.54;69.07;101516.08;1737383;82;21176;-47
2020/12/30 03:49:57;;;;;;;17.57;5.12;;;;;;;11.54;69.09;101515.24;1740624;82;21581;-47
2020/12/30 03:52:25;;;;;;;17.48;4.37;;;;;;;11.56;69.16;101517.39;1732230;80;21224;-47
2020/12/30 03:54:53;;;;;;;17.98;5.12;;;;;;;11.55;69.30;101516.95;1752434;82;21156;-48
2020/12/30 03:57:21;;;;;;;23.40;5.62;;;;;;;11.54;69.63;101525.67;1736636;82;21129;-47
2020/12/30 03:59:51;;;;;;;18.20;4.78;;;;;;;11.56;69.77;101518.69;1742358;82;21161;-47
2020/12/30 04:02:19;;;;;;;23.00;5.85;;;;;;;11.54;69.95;101522.59;1732450;82;21286;-47
2020/12/30 04:04:48;;;;;;;21.42;5.00;;;;;;;11.56;70.01;101526.51;1744851;82;21310;-47
2020/12/30 04:07:16;;;;;;;18.05;5.50;;;;;;;11.57;70.11;101523.00;1734008;82;21287;-47
2020/12/30 04:09:44;;;;;;;20.60;5.17;;;;;;;11.58;70.07;101520.37;1740753;82;21132;-47
2020/12/30 04:12:13;;;;;;;23.22;5.05;;;;;;;11.63;69.99;101530.73;1738759;82;21154;-46
2020/12/30 04:14:41;;;;;;;20.00;5.00;;;;;;;11.65;69.76;101527.67;1735642;82;21286;-47
2020/12/30 04:17:09;;;;;;;17.20;6.03;;;;;;;11.68;69.63;101526.38;1742241;82;21596;-48
2020/12/30 04:19:38;;;;;;;15.20;4.83;;;;;;;11.68;69.61;101534.19;1740756;82;21553;-48
2020/12/30 04:22:07;;;;;;;17.17;5.60;;;;;;;11.69;69.68;101522.86;1741479;82;21144;-45
2020/12/30 04:24:35;;;;;;;22.77;6.50;;;;;;;11.71;69.84;101528.92;1740381;82;21136;-46
2020/12/30 04:27:04;;;;;;;14.47;5.92;;;;;;;11.73;69.98;101528.45;1739410;82;21156;-47
2020/12/30 04:29:33;;;;;;;22.60;6.50;;;;;;;11.74;70.24;101524.98;1735803;82;21145;-47
2020/12/30 04:32:01;;;;;;;16.95;5.95;;;;;;;11.74;70.35;101524.55;1742391;82;21152;-47
2020/12/30 04:34:30;;;;;;;23.27;6.95;;;;;;;11.77;70.44;101523.61;1735456;82;21140;-47
2020/12/30 04:36:58;;;;;;;18.42;5.03;;;;;;;11.78;70.54;101521.01;1739490;82;21601;-48
2020/12/30 04:39:26;;;;;;;18.85;5.80;;;;;;;11.80;70.57;101519.24;1738090;82;21196;-47
2020/12/30 04:41:54;;;;;;;13.48;5.47;;;;;;;11.83;70.45;101513.96;1739158;81;21169;-47
2020/12/30 04:44:22;;;;;;;19.98;6.35;;;;;;;11.84;70.48;101513.53;1687519;82;21173;-47
2020/12/30 04:46:54;;;;;;;18.80;6.00;;;;;;;11.84;70.70;101516.14;1714366;82;21298;-47
2020/12/30 04:49:21;;;;;;;20.68;6.72;;;;;;;11.85;70.75;101521.78;1734159;82;21152;-46
2020/12/30 04:51:49;;;;;;;21.30;5.78;;;;;;;11.87;70.64;101514.80;1744642;82;21639;-47
2020/12/30 04:54:17;;;;;;;15.35;5.45;;;;;;;11.89;70.58;101515.64;1732222;82;21148;-46
2020/12/30 04:57:02;;;;;;;18.48;6.28;;;;;;;11.89;70.69;101507.81;1731038;82;21152;-47
2020/12/30 04:59:42;;;;;;;19.45;5.80;;;;;;;11.92;70.70;101523.40;1642790;84;21224;-47
2020/12/30 05:02:11;;;;;;;22.30;6.00;;;;;;;11.92;70.62;101531.22;1622223;86;21340;-47
2020/12/30 05:04:42;;;;;;;24.45;6.12;;;;;;;11.91;70.50;101524.30;1640769;86;21201;-46
2020/12/30 05:07:14;;;;;;;27.07;6.30;;;;;;;11.90;70.33;101532.99;1641977;86;21262;-47
2020/12/30 05:09:44;;;;;;;17.48;5.40;;;;;;;11.89;70.38;101531.28;1642427;86;21193;-48
2020/12/30 05:12:18;;;;;;;18.35;5.10;;;;;;;11.90;70.35;101535.16;1640629;86;21180;-47
2020/12/30 05:14:52;;;;;;;20.55;5.45;;;;;;;11.95;70.05;101528.59;1810126;79;23010;-46
2020/12/30 05:17:20;;;;;;;16.52;5.25;;;;;;;11.91;69.95;101528.21;1780305;80;21120;-47
2020/12/30 05:19:48;;;;;;;24.27;6.67;;;;;;;11.89;69.87;101527.38;1781512;80;21120;-47
2020/12/30 05:22:19;;;;;;;15.63;5.42;;;;;;;11.89;69.93;101533.89;1777481;80;21297;-47
2020/12/30 05:24:48;;;;;;;19.00;5.40;;;;;;;11.88;69.96;101536.06;1719010;83;21220;-47
2020/12/30 05:27:16;;;;;;;18.45;6.42;;;;;;;11.88;70.01;101534.77;1720682;83;21172;-47
2020/12/30 05:29:50;;;;;;;21.17;6.35;;;;;;;11.88;69.95;101533.02;1720683;83;21180;-47
2020/12/30 05:32:19;;;;;;;18.73;5.42;;;;;;;11.90;69.99;101527.77;1691272;83;21180;-47
2020/12/30 05:34:47;;;;;;;17.60;5.72;;;;;;;11.90;70.14;101530.38;1720698;83;21624;-47
2020/12/30 05:37:16;;;;;;;15.08;5.97;;;;;;;11.91;70.09;101533.42;1707995;83;21381;-47
2020/12/30 05:39:44;;;;;;;15.93;4.87;;;;;;;11.91;70.08;101530.82;1720684;83;21573;-47
2020/12/30 05:42:17;;;;;;;18.45;6.65;;;;;;;11.92;70.00;101539.05;1720714;83;21267;-47
2020/12/30 05:44:51;;;;;;;12.58;4.47;;;;;;;11.91;70.03;101542.55;1715213;83;21642;-47
2020/12/30 05:47:26;;;;;;;24.45;5.80;;;;;;;11.93;70.21;101535.57;1771658;79;22988;-47
2020/12/30 05:49:55;;;;;;;18.95;6.08;;;;;;;11.91;70.12;101529.05;1738551;82;21192;-47
2020/12/30 05:52:25;;;;;;;24.02;6.08;;;;;;;11.89;70.03;101533.42;1732193;82;21117;-47
2020/12/30 05:55:02;;;;;;;22.13;5.15;;;;;;;11.88;69.99;101540.84;1752958;82;21169;-48
2020/12/30 05:57:37;;;;;;;14.47;5.08;;;;;;;11.88;70.04;101539.98;1739727;82;21113;-47
2020/12/30 06:00:13;;;;;;;14.58;4.80;;;;;;;11.88;70.20;101542.59;1740426;82;21181;-48
2020/12/30 06:02:44;;;;;;;17.02;5.00;;;;;;;11.88;70.30;101542.59;1736257;82;21144;-48
2020/12/30 06:05:17;;;;;;;14.63;5.65;;;;;;;11.90;70.31;101538.20;1689655;84;21184;-47
2020/12/30 06:07:49;;;;;;;14.80;5.62;;;;;;;11.91;70.21;101538.17;1675501;83;21290;-46
2020/12/30 06:10:20;;;;;;;12.78;4.95;;;;;;;11.93;70.12;101536.88;1680427;84;21213;-48
2020/12/30 06:12:54;;;;;;;12.30;4.90;;;;;;;11.93;69.97;101539.48;1666579;85;21197;-48
2020/12/30 06:15:27;;;;;;;16.42;5.08;;;;;;;11.95;69.89;101539.02;1682878;84;21179;-48
2020/12/30 06:18:02;;;;;;;16.05;5.40;;;;;;;11.95;69.78;101541.63;1678038;85;21578;-47
2020/12/30 06:20:40;;;;;;;15.32;5.00;;;;;;;11.99;69.70;101538.92;1765813;79;23056;-48
2020/12/30 06:23:12;;;;;;;12.15;4.80;;;;;;;11.96;69.41;101543.33;1738727;81;21125;-47
2020/12/30 06:25:44;;;;;;;18.90;4.80;;;;;;;11.90;69.49;101536.47;1741866;82;21125;-48
2020/12/30 06:28:22;;;;;;;20.48;5.25;;;;;;;11.85;69.59;101540.88;1736152;82;21212;-48
2020/12/30 06:30:52;;;;;;;20.15;4.90;;;;;;;11.82;70.02;101545.28;1738895;82;21305;-47
2020/12/30 06:33:24;;;;;;;16.45;5.05;;;;;;;11.79;70.38;101540.09;1737518;82;21134;-48
2020/12/30 06:35:56;;;;;;;17.67;5.78;;;;;;;11.75;70.73;101535.81;1742718;82;21560;-48
2020/12/30 06:38:27;;;;;;;21.50;6.22;;;;;;;11.73;71.02;101541.05;1734463;82;21136;-48
2020/12/30 06:41:01;;;;;;;26.48;5.87;;;;;;;11.70;71.36;101541.55;1683465;85;21749;-48
2020/12/30 06:43:43;;;;;;;17.17;5.15;;;;;;;11.68;71.64;101543.31;1649054;86;21337;-47
2020/12/30 06:46:12;;;;;;;18.10;5.03;;;;;;;11.69;71.95;101547.62;1638385;85;21195;-48
2020/12/30 06:49:04;;;;;;;15.40;4.72;;;;;;;11.72;72.13;101551.52;1679612;83;21176;-47
2020/12/30 06:51:40;;;;;;;16.80;5.22;;;;;;;11.79;72.20;101554.44;1771563;79;22954;-47
2020/12/30 06:54:09;;;;;;;20.15;6.00;;;;;;;11.77;72.07;101566.64;1748158;82;21121;-47
2020/12/30 06:56:48;;;;;;;15.05;5.50;;;;;;;11.78;72.02;101567.07;1736082;82;21148;-48
2020/12/30 06:59:21;;;;;;;16.30;5.12;;;;;;;11.81;71.82;101561.83;1737027;81;21124;-48
2020/12/30 07:02:03;;;;;;;18.10;5.90;;;;;;;11.82;71.64;101557.02;1621370;86;21338;-47
2020/12/30 07:04:32;;;;;;;15.88;5.92;;;;;;;11.84;71.88;101553.95;1617813;87;21564;-46
2020/12/30 07:07:04;;;;;;;22.45;6.12;;;;;;;11.85;71.92;101553.91;1618980;87;21345;-47
2020/12/30 07:09:35;;;;;;;27.95;6.15;;;;;;;11.88;71.94;101556.50;1619186;87;21604;-47
2020/12/30 07:12:07;;;;;;;15.03;5.45;;;;;;;11.89;72.06;101557.37;1617781;87;21190;-47
2020/12/30 07:14:37;;;;;;;24.57;7.30;;;;;;;11.92;72.09;101562.08;1617759;87;21200;-47
2020/12/30 07:17:08;;;;;;;19.75;6.00;;;;;;;11.96;71.97;101566.80;1613057;87;21650;-47
2020/12/30 07:19:42;;;;;;;;;;;;;;;12.00;71.78;101565.87;1627253;87;21151;-46
2020/12/30 07:22:16;;;;;;;15.53;5.15;;;;;;;12.08;71.50;101564.02;1815872;79;22847;-47
2020/12/30 07:24:57;;;;;;;20.97;6.33;;;;;;;12.04;71.51;101558.42;1779023;80;21136;-47
2020/12/30 07:27:28;;;;;;;16.85;6.35;;;;;;;12.05;71.58;101558.86;1711507;83;21251;-46
2020/12/30 07:29:56;;;;;;;20.75;7.53;;;;;;;12.04;71.63;101554.08;1712648;82;21188;-47
2020/12/30 07:32:25;;;;;;;15.30;6.37;;;;;;;12.05;71.58;101558.86;1707588;83;21232;-47
2020/12/30 07:34:53;;;;;;;18.40;6.67;;;;;;;12.06;71.52;101555.34;1701903;83;21373;-48
2020/12/30 07:37:24;;;;;;;16.55;6.17;;;;;;;12.07;71.43;101549.27;1729076;82;21204;-47
2020/12/30 07:39:53;;;;;;;13.40;5.72;;;;;;;12.09;71.37;101551.41;1709490;83;21366;-48
2020/12/30 07:42:24;;;;;;;22.22;7.42;;;;;;;12.10;71.36;101546.59;1712200;83;21175;-47
2020/12/30 07:44:57;;;;;;;18.62;5.67;;;;;;;12.12;71.29;101557.86;1711357;83;21223;-48
2020/12/30 07:47:32;;;;;;;21.73;7.25;;;;;;;12.15;71.22;101557.83;1772623;79;22961;-47
2020/12/30 07:50:04;;;;;;;19.70;6.40;;;;;;;12.11;71.26;101569.20;1734842;82;21282;-47
2020/12/30 07:52:32;;;;;;;16.40;6.50;;;;;;;12.13;71.43;101568.73;1733753;82;21144;-47
2020/12/30 07:55:00;;;;;;;19.30;6.55;;;;;;;12.13;71.56;101564.39;1740714;80;21144;-47
2020/12/30 07:57:28;;;;;;;22.90;6.33;;;;;;;12.17;71.54;101563.89;1731469;82;21564;-48
2020/12/30 07:59:59;;;;;;;14.95;5.72;;;;;;;12.17;71.58;101567.80;1732732;82;21164;-47
2020/12/30 08:02:28;;;;;;;21.68;6.42;;;;;;;12.19;71.69;101568.64;1736457;82;21181;-47
2020/12/30 08:05:01;;;;;;;26.17;6.37;;;;;;;12.20;71.62;101567.30;1741623;80;21273;-47
2020/12/30 08:07:33;;;;;;;16.97;6.30;;;;;;;12.22;71.54;101564.22;1734525;81;21160;-47
2020/12/30 08:10:01;;;;;;;17.02;6.60;;;;;;;12.24;71.51;101570.28;1739005;80;21120;-46
2020/12/30 08:12:29;;;;;;;14.93;6.08;;;;;;;12.27;71.47;101568.07;1741363;82;21818;-47
2020/12/30 08:14:58;;;;;;;24.10;6.87;;;;;;;12.29;71.43;101575.43;1734958;82;21176;-48
2020/12/30 08:17:27;;;;;;;21.77;6.97;;;;;;;12.31;71.26;101579.31;1739799;82;21152;-48
2020/12/30 08:19:55;;;;;;;18.32;6.45;;;;;;;12.30;71.23;101581.09;1743202;82;21153;-47
2020/12/30 08:22:26;;;;;;;22.45;6.25;;;;;;;12.30;71.15;101582.39;1744579;82;21188;-48
2020/12/30 08:24:56;;;;;;;16.87;5.92;;;;;;;12.31;70.96;101584.09;1732616;82;21571;-48
2020/12/30 08:27:29;;;;;;;16.73;5.50;;;;;;;12.33;70.83;101592.77;1741548;82;21196;-48
2020/12/30 08:30:01;;;;;;;20.10;7.05;;;;;;;12.34;70.59;101582.77;1693964;84;21670;-47
2020/12/30 08:32:48;;;;;;;21.62;6.70;;;;;;;12.38;70.53;101581.83;1694366;83;21179;-47
2020/12/30 08:35:20;;;;;;;17.27;6.42;;;;;;;12.40;70.67;101582.66;1693362;84;21162;-48
2020/12/30 08:38:12;;;;;;;16.32;6.22;;;;;;;12.42;70.84;101578.28;1694349;84;21606;-47
2020/12/30 08:40:54;;;;;;;21.47;7.37;;;;;;;12.49;70.93;101582.96;1800738;77;28519;-47
2020/12/30 08:43:41;;;;;;;20.57;5.87;;;;;;;12.52;70.75;101581.16;1810195;78;21402;-49
2020/12/30 08:46:11;;;;;;;21.87;6.47;;;;;;;12.63;70.35;101578.37;1814268;78;21124;-47
2020/12/30 08:48:46;;;;;;;20.80;6.90;;;;;;;12.67;70.05;101576.12;1815304;78;21156;-47
2020/12/30 08:51:32;;;;;;;20.45;6.55;;;;;;;12.72;69.85;101573.84;1673438;85;21181;-48
2020/12/30 08:54:00;;;;;;;14.85;5.95;;;;;;;12.74;69.79;101565.97;1682794;83;21227;-47
2020/12/30 08:56:29;;;;;;;17.77;5.70;;;;;;;12.75;69.89;101564.66;1669358;85;21211;-49
2020/12/30 08:58:58;;;;;;;14.87;5.62;;;;;;;12.76;70.11;101561.14;1674114;85;21156;-47
2020/12/30 09:01:28;;;;;;;16.35;7.47;;;;;;;12.79;70.25;101554.57;1678517;85;21330;-47
2020/12/30 09:04:12;;;;;;;15.35;5.75;;;;;;;12.79;70.29;101550.66;1650460;87;21167;-48
2020/12/30 09:06:43;;;;;;;18.92;5.75;;;;;;;12.78;70.21;101551.52;1666890;86;21187;-46
2020/12/30 09:09:14;;;;;;;23.35;7.22;;;;;;;12.81;69.95;101545.39;1668266;86;21410;-48
2020/12/30 09:11:50;;;;;;;18.73;5.60;;;;;;;12.84;69.71;101547.93;1635800;86;21332;-47
2020/12/30 09:14:22;;;;;;;14.10;5.70;;;;;;;12.87;69.49;101542.23;1648871;87;21674;-47
2020/12/30 09:17:04;;;;;;;13.95;5.78;;;;;;;12.91;69.50;101542.59;1672203;86;21172;-47
2020/12/30 09:19:30;;;;;;;20.37;5.80;;;;;;;12.95;69.36;101536.41;1659871;86;21187;-47
2020/12/30 09:22:10;;;;;;;21.30;5.92;;;;;;;12.98;69.25;101532.41;1640819;87;21196;-46
2020/12/30 09:24:41;;;;;;;21.20;6.12;;;;;;;12.96;69.39;101530.28;1647685;87;21166;-47
2020/12/30 09:27:20;;;;;;;16.75;5.22;;;;;;;12.94;69.63;101534.67;1670811;86;21608;-47
2020/12/30 09:30:18;;;;;;;18.67;6.45;;;;;;;12.94;69.76;101542.52;1743884;81;21200;-47
2020/12/30 09:32:47;;;;;;;14.68;5.92;;;;;;;12.93;69.76;101538.19;1764889;80;21425;-47
2020/12/30 09:35:18;;;;;;;15.75;5.42;;;;;;;12.93;69.72;101539.50;1769411;80;21160;-47
2020/12/30 09:37:58;;;;;;;17.45;6.55;;;;;;;12.93;69.66;101540.80;1744641;82;21598;-47
2020/12/30 09:40:27;;;;;;;18.82;5.70;;;;;;;12.94;69.67;101535.98;1711052;83;21624;-47
2020/12/30 09:46:00;;;;;;;19.07;6.60;;;;;;;13.03;68.95;101537.12;1795063;79;29635;-46
2020/12/30 09:48:29;;;;;;;12.35;5.03;;;;;;;13.02;68.71;101540.61;1771361;80;21564;-48
2020/12/30 09:50:59;;;;;;;12.28;5.33;;;;;;;13.06;68.41;101534.47;1762699;80;21289;-48
2020/12/30 09:53:27;;;;;;;21.90;5.90;;;;;;;13.03;68.42;101527.98;1772968;80;21144;-48
2020/12/30 09:55:56;;;;;;;18.70;5.53;;;;;;;12.99;68.52;101534.16;1758380;80;21655;-47
2020/12/30 09:58:24;;;;;;;31.35;7.62;;;;;;;12.97;68.78;101526.80;1768056;80;22209;-48
2020/12/30 10:00:53;;;;;;;24.23;6.12;;;;;;;12.97;69.05;101521.56;1767189;80;21108;-48
2020/12/30 10:03:22;;;;;;;24.10;6.75;;;;;;;12.99;69.24;101519.78;1760332;80;21144;-48
2020/12/30 10:05:50;;;;;;;17.48;5.95;;;;;;;13.03;69.31;101512.30;1777502;80;21659;-48
2020/12/30 10:08:19;;;;;;;14.03;5.65;;;;;;;12.98;69.40;101502.84;1765746;80;21163;-49
2020/12/30 10:10:49;;;;;;;17.45;6.03;;;;;;;12.95;69.95;101497.23;1759774;80;21555;-48
2020/12/30 10:13:17;;;;;;;20.32;5.65;;;;;;;13.18;69.21;101498.55;1769271;80;21104;-48
2020/12/30 10:15:46;;;;;;;16.27;5.42;;;;;;;13.23;69.05;101494.93;1770479;79;21159;-48
2020/12/30 10:18:14;;;;;;;16.82;5.03;;;;;;;13.27;68.98;101502.28;1773610;80;21120;-47
2020/12/30 10:20:43;;;;;;;14.28;5.30;;;;;;;13.28;68.90;101503.55;1780999;80;21124;-48
2020/12/30 10:23:12;;;;;;;14.90;5.33;;;;;;;13.28;68.80;101495.71;1770811;80;21159;-47
2020/12/30 10:25:40;;;;;;;21.68;6.75;;;;;;;13.30;68.76;101500.90;1768030;80;21301;-47
2020/12/30 10:28:08;;;;;;;15.43;5.00;;;;;;;13.31;68.60;101498.71;1775569;80;21115;-48
2020/12/30 10:30:37;;;;;;;17.02;5.47;;;;;;;13.31;68.41;101495.66;1767770;80;21269;-48
2020/12/30 10:33:08;;;;;;;19.10;5.53;;;;;;;13.29;68.14;101486.96;1765659;80;21155;-48
2020/12/30 10:35:36;;;;;;;17.23;5.12;;;;;;;13.30;67.90;101481.30;1774429;80;21553;-48
2020/12/30 10:38:04;;;;;;;16.52;5.62;;;;;;;13.28;67.93;101480.47;1761244;80;21167;-47
2020/12/30 10:40:33;;;;;;;12.55;4.55;;;;;;;13.27;68.04;101480.07;1734810;82;21128;-47
2020/12/30 10:43:03;;;;;;;16.25;5.12;;;;;;;13.24;68.25;101479.68;1701304;83;21334;-47
2020/12/30 10:45:33;;;;;;;17.70;5.62;;;;;;;13.19;68.42;101470.23;1686858;83;21168;-47
2020/12/30 10:48:02;;;;;;;15.28;5.60;;;;;;;13.18;68.56;101472.41;1746053;81;21105;-47
2020/12/30 10:50:30;;;;;;;17.92;5.08;;;;;;;13.15;68.63;101474.63;1755151;81;21172;-47
2020/12/30 10:52:58;;;;;;;15.90;5.28;;;;;;;13.19;68.40;101468.92;1749254;81;21152;-48
2020/12/30 10:55:27;;;;;;;14.33;5.15;;;;;;;13.19;68.36;101461.08;1744533;81;21168;-48
2020/12/30 10:57:55;;;;;;;17.90;5.42;;;;;;;13.20;68.35;101450.59;1753432;81;21176;-47
2020/12/30 11:00:24;;;;;;;14.87;4.53;;;;;;;13.22;68.32;101453.16;1749091;81;21128;-48
2020/12/30 11:02:55;;;;;;;13.08;4.28;;;;;;;13.22;68.48;101450.55;1754619;81;21188;-48
2020/12/30 11:05:23;;;;;;;18.40;4.92;;;;;;;13.24;68.60;101453.98;1749512;81;21592;-48
2020/12/30 11:07:52;;;;;;;17.45;5.17;;;;;;;13.26;68.71;101456.12;1744534;81;21164;-47
2020/12/30 11:10:22;;;;;;;12.80;4.40;;;;;;;13.33;68.61;101453.80;1750151;81;21161;-48
2020/12/30 11:12:50;;;;;;;18.80;4.40;;;;;;;13.38;68.32;101451.48;1748998;79;21549;-47
2020/12/30 11:15:20;;;;;;;20.10;5.05;;;;;;;13.42;68.13;101445.73;1750687;81;21187;-48
2020/12/30 11:17:49;;;;;;;12.20;4.72;;;;;;;13.46;67.91;101442.16;1749987;81;21128;-48
2020/12/30 11:20:17;;;;;;;16.17;4.70;;;;;;;13.48;67.81;101442.98;1757959;81;21302;-48
2020/12/30 11:22:46;;;;;;;15.98;5.47;;;;;;;13.48;67.69;101442.98;1751095;81;21270;-48
2020/12/30 11:25:14;;;;;;;13.08;5.47;;;;;;;13.51;67.62;101440.31;1758955;81;21723;-47
2020/12/30 11:27:43;;;;;;;19.30;5.72;;;;;;;13.50;67.19;101442.50;1747733;81;21156;-48
2020/12/30 11:30:11;;;;;;;20.37;5.85;;;;;;;13.45;67.01;101443.06;1756496;81;21105;-46
2020/12/30 11:32:43;;;;;;;25.27;7.08;;;;;;;13.38;67.03;101446.70;1756778;80;21188;-47
2020/12/30 11:35:11;;;;;;;19.52;6.28;;;;;;;13.30;67.38;101444.27;1747542;81;21271;-47